地図

経路データ

SID SEASON NUMBER BASIN SUBBASIN NAME ISO_TIME NATURE LAT LON WMO_WIND WMO_PRES WMO_AGENCY TRACK_TYPE DIST2LAND LANDFALL IFLAG USA_AGENCY USA_ATCF_ID USA_LAT USA_LON USA_RECORD USA_STATUS USA_WIND USA_PRES USA_SSHS USA_R34_NE USA_R34_SE USA_R34_SW USA_R34_NW USA_R50_NE USA_R50_SE USA_R50_SW USA_R50_NW USA_R64_NE USA_R64_SE USA_R64_SW USA_R64_NW USA_POCI USA_ROCI USA_RMW USA_EYE TOKYO_LAT TOKYO_LON TOKYO_GRADE TOKYO_WIND TOKYO_PRES TOKYO_R50_DIR TOKYO_R50_LONG TOKYO_R50_SHORT TOKYO_R30_DIR TOKYO_R30_LONG TOKYO_R30_SHORT TOKYO_LAND CMA_LAT CMA_LON CMA_CAT CMA_WIND CMA_PRES HKO_LAT HKO_LON HKO_CAT HKO_WIND HKO_PRES NEWDELHI_LAT NEWDELHI_LON NEWDELHI_GRADE NEWDELHI_WIND NEWDELHI_PRES NEWDELHI_CI NEWDELHI_DP NEWDELHI_POCI REUNION_LAT REUNION_LON REUNION_TYPE REUNION_WIND REUNION_PRES REUNION_TNUM REUNION_CI REUNION_RMW REUNION_R34_NE REUNION_R34_SE REUNION_R34_SW REUNION_R34_NW REUNION_R50_NE REUNION_R50_SE REUNION_R50_SW REUNION_R50_NW REUNION_R64_NE REUNION_R64_SE REUNION_R64_SW REUNION_R64_NW BOM_LAT BOM_LON BOM_TYPE BOM_WIND BOM_PRES BOM_TNUM BOM_CI BOM_RMW BOM_R34_NE BOM_R34_SE BOM_R34_SW BOM_R34_NW BOM_R50_NE BOM_R50_SE BOM_R50_SW BOM_R50_NW BOM_R64_NE BOM_R64_SE BOM_R64_SW BOM_R64_NW BOM_ROCI BOM_POCI BOM_EYE BOM_POS_METHOD BOM_PRES_METHOD NADI_LAT NADI_LON NADI_CAT NADI_WIND NADI_PRES WELLINGTON_LAT WELLINGTON_LON WELLINGTON_WIND WELLINGTON_PRES DS824_LAT DS824_LON DS824_STAGE DS824_WIND DS824_PRES TD9636_LAT TD9636_LON TD9636_STAGE TD9636_WIND TD9636_PRES TD9635_LAT TD9635_LON TD9635_WIND TD9635_PRES TD9635_ROCI NEUMANN_LAT NEUMANN_LON NEUMANN_CLASS NEUMANN_WIND NEUMANN_PRES MLC_LAT MLC_LON MLC_CLASS MLC_WIND MLC_PRES USA_GUST BOM_GUST BOM_GUST_PER REUNION_GUST REUNION_GUST_PER USA_SEAHGT USA_SEARAD_NE USA_SEARAD_SE USA_SEARAD_SW USA_SEARAD_NW STORM_SPEED STORM_DIR
1903255N23304 1903 45 NA NA NOT_NAMED 1903-09-12 00:00:00 TS 22.5000 -55.6000 60 hurdat_atl main 1137 1117 O_____________ hurdat_atl AL041903 22.5000 -55.6000 TS 60 0 11 317
1903255N23304 1903 45 NA NA NOT_NAMED 1903-09-12 03:00:00 TS 22.8978 -56.0018 main 1117 1101 P_____________ AL041903 22.8978 -56.0018 TS 60 0 11 317
1903255N23304 1903 45 NA NA NOT_NAMED 1903-09-12 06:00:00 TS 23.3000 -56.4000 60 hurdat_atl main 1101 1088 O_____________ hurdat_atl AL041903 23.3000 -56.4000 TS 60 0 11 318
1903255N23304 1903 45 NA NA NOT_NAMED 1903-09-12 09:00:00 TS 23.7196 -56.8059 main 1088 1076 P_____________ AL041903 23.7196 -56.8059 TS 60 0 12 318
1903255N23304 1903 45 NA NA NOT_NAMED 1903-09-12 12:00:00 TS 24.2000 -57.3000 60 hurdat_atl main 1076 1062 O_____________ hurdat_atl AL041903 24.2000 -57.3000 TS 60 0 15 316
1903255N23304 1903 45 NA NA NOT_NAMED 1903-09-12 15:00:00 TS 24.7848 -57.9401 main 1069 1055 P_____________ AL041903 24.7848 -57.9401 TS 60 0 18 313
1903255N23304 1903 45 NA NA NOT_NAMED 1903-09-12 18:00:00 TS 25.4000 -58.7000 60 hurdat_atl main 1057 1047 O_____________ hurdat_atl AL041903 25.4000 -58.7000 TS 60 0 19 310
1903255N23304 1903 45 NA NA NOT_NAMED 1903-09-12 21:00:00 TS 25.9722 -59.5204 main 1055 1044 P_____________ AL041903 25.9722 -59.5204 TS 60 0 19 306
1903255N23304 1903 45 NA NA NOT_NAMED 1903-09-13 00:00:00 TS 26.5000 -60.4000 60 hurdat_atl main 1050 1050 O_____________ hurdat_atl AL041903 26.5000 -60.4000 TS 60 0 19 303
1903255N23304 1903 45 NA NA NOT_NAMED 1903-09-13 03:00:00 TS 26.9871 -61.2929 main 1057 1053 P_____________ AL041903 26.9871 -61.2929 TS 60 0 18 299
1903255N23304 1903 45 NA NA NOT_NAMED 1903-09-13 06:00:00 TS 27.4000 -62.2000 60 hurdat_atl main 1064 1061 O_____________ hurdat_atl AL041903 27.4000 -62.2000 TS 60 0 18 295
1903255N23304 1903 45 NA NA NOT_NAMED 1903-09-13 09:00:00 TS 27.7377 -63.1453 main 1070 1070 P_____________ AL041903 27.7377 -63.1453 TS 60 0 17 291
1903255N23304 1903 45 NA NA NOT_NAMED 1903-09-13 12:00:00 TS 28.0000 -64.0000 60 hurdat_atl main 1085 1083 O_____________ hurdat_atl AL041903 28.0000 -64.0000 TS 60 0 14 290
1903255N23304 1903 45 NA NA NOT_NAMED 1903-09-13 15:00:00 TS 28.2139 -64.6383 main 1100 1096 P_____________ AL041903 28.2139 -64.6383 TS 60 0 11 291
1903255N23304 1903 45 NA NA NOT_NAMED 1903-09-13 18:00:00 TS 28.4000 -65.2000 60 hurdat_atl main 1097 1085 O_____________ hurdat_atl AL041903 28.4000 -65.2000 TS 60 0 11 290
1903255N23304 1903 45 NA NA NOT_NAMED 1903-09-13 21:00:00 TS 28.6073 -65.8426 main 1092 1071 P_____________ AL041903 28.6073 -65.8426 TS 60 0 12 289
1903255N23304 1903 45 NA NA NOT_NAMED 1903-09-14 00:00:00 TS 28.8000 -66.5000 60 hurdat_atl main 1071 1044 O_____________ hurdat_atl AL041903 28.8000 -66.5000 TS 60 0 12 287
1903255N23304 1903 45 NA NA NOT_NAMED 1903-09-14 03:00:00 TS 28.9498 -67.1579 main 1039 1025 P_____________ AL041903 28.9498 -67.1579 TS 60 0 12 285
1903255N23304 1903 45 NA NA NOT_NAMED 1903-09-14 06:00:00 TS 29.1000 -67.8000 60 hurdat_atl main 1025 969 O_____________ hurdat_atl AL041903 29.1000 -67.8000 TS 60 0 11 287
1903255N23304 1903 45 NA NA NOT_NAMED 1903-09-14 09:00:00 TS 29.2770 -68.4005 main 969 912 P_____________ AL041903 29.2770 -68.4005 TS 60 0 11 291
1903255N23304 1903 45 NA NA NOT_NAMED 1903-09-14 12:00:00 TS 29.5000 -69.0000 60 hurdat_atl main 912 847 O_____________ hurdat_atl AL041903 29.5000 -69.0000 TS 60 0 12 295
1903255N23304 1903 45 NA NA NOT_NAMED 1903-09-14 15:00:00 TS 29.7774 -69.6501 main 839 774 P_____________ AL041903 29.7774 -69.6501 TS 62 0 13 298
1903255N23304 1903 45 NA NA NOT_NAMED 1903-09-14 18:00:00 TS 30.1000 -70.3000 65 hurdat_atl main 774 710 O_____________ hurdat_atl AL041903 30.1000 -70.3000 HU 65 1 13 301
1903255N23304 1903 45 NA NA NOT_NAMED 1903-09-14 21:00:00 TS 30.4347 -70.9154 main 710 637 P_____________ AL041903 30.4347 -70.9154 HU 67 1 13 304
1903255N23304 1903 45 NA NA NOT_NAMED 1903-09-15 00:00:00 TS 30.8000 -71.5000 70 hurdat_atl main 637 565 O_____________ hurdat_atl AL041903 30.8000 -71.5000 HU 70 1 13 307
1903255N23304 1903 45 NA NA NOT_NAMED 1903-09-15 03:00:00 TS 31.1850 -72.0876 main 565 500 P_____________ AL041903 31.1850 -72.0876 HU 72 1 12 310
1903255N23304 1903 45 NA NA NOT_NAMED 1903-09-15 06:00:00 TS 31.6000 -72.6000 75 hurdat_atl main 500 442 O_____________ hurdat_atl AL041903 31.6000 -72.6000 HU 75 1 11 317
1903255N23304 1903 45 NA NA NOT_NAMED 1903-09-15 09:00:00 TS 31.9896 -72.9813 main 442 384 P_____________ AL041903 31.9896 -72.9813 HU 77 1 11 327
1903255N23304 1903 45 NA NA NOT_NAMED 1903-09-15 12:00:00 TS 32.5000 -73.3000 80 hurdat_atl main 384 312 O_____________ hurdat_atl AL041903 32.5000 -73.3000 HU 80 1 14 335
1903255N23304 1903 45 NA NA NOT_NAMED 1903-09-15 15:00:00 TS 33.2101 -73.6650 main 305 233 P_____________ AL041903 33.2101 -73.6650 HU 82 1 17 340
1903255N23304 1903 45 NA NA NOT_NAMED 1903-09-15 18:00:00 TS 34.1000 -74.0000 85 hurdat_atl main 227 133 O_____________ hurdat_atl AL041903 34.1000 -74.0000 HU 85 2 20 345
1903255N23304 1903 45 NA NA NOT_NAMED 1903-09-15 21:00:00 TS 35.1350 -74.2945 main 133 90 P_____________ AL041903 35.1350 -74.2945 HU 82 1 21 349
1903255N23304 1903 45 NA NA NOT_NAMED 1903-09-16 00:00:00 TS 36.2000 -74.5000 80 hurdat_atl main 100 100 O_____________ hurdat_atl AL041903 36.2000 -74.5000 HU 80 1 20 353
1903255N23304 1903 45 NA NA NOT_NAMED 1903-09-16 03:00:00 TS 37.1613 -74.5789 main 102 54 P_____________ AL041903 37.1613 -74.5789 HU 77 1 18 357
1903255N23304 1903 45 NA NA NOT_NAMED 1903-09-16 06:00:00 TS 38.0000 -74.6000 75 hurdat_atl main 54 28 O_____________ hurdat_atl AL041903 38.0000 -74.6000 HU 75 1 15 357
1903255N23304 1903 45 NA NA NOT_NAMED 1903-09-16 09:00:00 TS 38.6918 -74.6733 main 28 0 P_____________ AL041903 38.6918 -74.6733 HU 72 1 13 356
1903255N23304 1903 45 NA NA NOT_NAMED 1903-09-16 11:00:00 TS 39.1000 -74.7000 70 990 hurdat_atl main 0 0 O_____________ hurdat_atl AL041903 39.1000 -74.7000 L HU 70 990 1 12 0
1903255N23304 1903 45 NA NA NOT_NAMED 1903-09-16 12:00:00 TS 39.3000 -74.7000 70 990 hurdat_atl main 0 0 O_____________ hurdat_atl AL041903 39.3000 -74.7000 HU 70 990 1 11 354
1903255N23304 1903 45 NA NA NOT_NAMED 1903-09-16 15:00:00 TS 39.8390 -74.7974 main 0 0 P_____________ AL041903 39.8390 -74.7974 HU 62 0 10 347
1903255N23304 1903 45 NA NA NOT_NAMED 1903-09-16 18:00:00 TS 40.3000 -75.0000 55 hurdat_atl main 0 0 O_____________ hurdat_atl AL041903 40.3000 -75.0000 TS 55 0 9 340
1903255N23304 1903 45 NA NA NOT_NAMED 1903-09-16 21:00:00 TS 40.7148 -75.2131 main 0 0 P_____________ AL041903 40.7148 -75.2131 TS 55 0 9 335
1903255N23304 1903 45 NA NA NOT_NAMED 1903-09-17 00:00:00 TS 41.1000 -75.5000 55 hurdat_atl main 0 0 O_____________ hurdat_atl AL041903 41.1000 -75.5000 TS 55 0 9 326
1903255N23304 1903 45 NA NA NOT_NAMED 1903-09-17 03:00:00 TS 41.4776 -75.8853 main 0 0 P_____________ AL041903 41.4776 -75.8853 TS 50 0 10 323
1903255N23304 1903 45 NA NA NOT_NAMED 1903-09-17 06:00:00 TS 41.9000 -76.3000 45 hurdat_atl main 0 0 O_____________ hurdat_atl AL041903 41.9000 -76.3000 TS 45 0 11 326
1903255N23304 1903 45 NA NA NOT_NAMED 1903-09-17 09:00:00 TS 42.3751 -76.7092 main 0 0 P_____________ AL041903 42.3751 -76.7092 TS 42 0 12 335
1903255N23304 1903 45 NA NA NOT_NAMED 1903-09-17 12:00:00 ET 43.0000 -77.0000 40 hurdat_atl main 0 0 O_____________ hurdat_atl AL041903 43.0000 -77.0000 EX 40 -4 15 350
1903255N23304 1903 45 NA NA NOT_NAMED 1903-09-17 15:00:00 ET 43.8374 -77.0692 main 0 0 P_____________ AL041903 43.8374 -77.0692 EX 35 -4 18 1
1903255N23304 1903 45 NA NA NOT_NAMED 1903-09-17 18:00:00 ET 44.8000 -77.0000 30 hurdat_atl main 0 O_____________ hurdat_atl AL041903 44.8000 -77.0000 EX 30 -4 19 3

IBTrACS Databaseについて

本データベースは、米国NOAAが公開する1842年以降の世界の熱帯低気圧のベストトラックデータアーカイブInternational Best Track Archive for Climate Stewardship (IBTrACS)を、ウェブで閲覧しやすい形式に変換したものです。

最終更新日:2021-10-21